Time;durP1;ratioP1;P1;durP2;ratioP2;P2;SDS_P1;SDS_P2;PMS_P1;PMS_P2;Temp;Humidity;BMP_temperature;BMP_pressure;BME280_temperature;BME280_humidity;BME280_pressure;Samples;Min_cycle;Max_cycle;Signal;HPM_P1;HPM_P2
2021/06/08 00:00:35;;;;;;;3.42;2.30;;;17.30;92.70;;;;;;5109574;28;20030;-39
2021/06/08 00:03:02;;;;;;;4.30;2.25;;;17.30;92.80;;;;;;5109579;28;20351;-40
2021/06/08 00:05:28;;;;;;;3.85;2.17;;;17.20;92.70;;;;;;5109719;28;20332;-40
2021/06/08 00:07:53;;;;;;;3.83;2.97;;;17.20;92.80;;;;;;5108429;28;20020;-41
2021/06/08 00:10:20;;;;;;;3.53;2.70;;;17.10;92.80;;;;;;5110574;28;20378;-40
2021/06/08 00:12:46;;;;;;;2.15;1.95;;;17.10;92.80;;;;;;5109299;28;20019;-39
2021/06/08 00:15:13;;;;;;;3.28;2.47;;;17.00;92.90;;;;;;5109884;28;20425;-42
2021/06/08 00:17:39;;;;;;;6.03;3.20;;;17.00;92.90;;;;;;5109338;28;20115;-40
2021/06/08 00:20:06;;;;;;;3.42;3.08;;;16.90;93.00;;;;;;5109129;28;20411;-41
2021/06/08 00:22:32;;;;;;;4.22;3.80;;;16.90;93.10;;;;;;5109224;28;20027;-41
2021/06/08 00:24:58;;;;;;;5.63;4.05;;;16.90;93.20;;;;;;5108884;28;20390;-41
2021/06/08 00:27:24;;;;;;;3.72;3.40;;;16.80;93.20;;;;;;5109440;28;20027;-40
2021/06/08 00:29:49;;;;;;;4.63;3.85;;;16.80;93.20;;;;;;5109031;28;20047;-40
2021/06/08 00:32:15;;;;;;;5.47;4.28;;;16.80;93.30;;;;;;5108829;28;20032;-41
2021/06/08 00:34:40;;;;;;;4.63;3.75;;;16.80;93.40;;;;;;5109054;28;20024;-41
2021/06/08 00:37:06;;;;;;;4.60;3.92;;;16.70;93.40;;;;;;5108560;28;20030;-39
2021/06/08 00:39:34;;;;;;;3.65;3.35;;;16.70;93.50;;;;;;5109541;28;20030;-39
2021/06/08 00:42:00;;;;;;;4.40;3.95;;;16.60;93.60;;;;;;5108649;28;20027;-41
2021/06/08 00:44:25;;;;;;;6.28;4.00;;;16.60;93.70;;;;;;5108410;28;20047;-40
2021/06/08 00:46:51;;;;;;;5.30;3.75;;;16.60;93.70;;;;;;5108951;28;20027;-40
2021/06/08 00:49:17;;;;;;;3.80;3.50;;;16.50;93.70;;;;;;5108232;28;20568;-41
2021/06/08 00:51:42;;;;;;;4.40;3.97;;;16.50;93.70;;;;;;5109495;28;20100;-41
2021/06/08 00:54:12;;;;;;;3.72;3.42;;;16.50;93.70;;;;;;5108484;28;20548;-40
2021/06/08 00:56:43;;;;;;;4.43;3.40;;;16.50;94.00;;;;;;5108375;28;20035;-39
2021/06/08 00:59:09;;;;;;;4.63;3.65;;;16.50;93.80;;;;;;5108913;28;20036;-42
2021/06/08 01:01:36;;;;;;;4.40;3.75;;;16.50;93.90;;;;;;5108989;28;20051;-41
2021/06/08 01:04:07;;;;;;;4.72;4.20;;;16.40;93.90;;;;;;5107426;28;20138;-41
2021/06/08 01:06:34;;;;;;;4.50;4.15;;;16.40;94.00;;;;;;5109080;28;20171;-39
2021/06/08 01:09:01;;;;;;;5.43;3.88;;;16.40;94.00;;;;;;5108215;28;20020;-41
2021/06/08 01:11:27;;;;;;;5.18;4.40;;;16.40;94.00;;;;;;5108118;28;20024;-41
2021/06/08 01:13:52;;;;;;;6.03;4.18;;;16.30;94.00;;;;;;5108439;28;20026;-41
2021/06/08 01:16:18;;;;;;;4.82;4.40;;;16.30;94.10;;;;;;5108237;28;20020;-40
2021/06/08 01:18:44;;;;;;;4.78;4.38;;;16.30;94.10;;;;;;5107302;28;20387;-38
2021/06/08 01:21:11;;;;;;;7.07;4.30;;;16.20;94.20;;;;;;5107931;28;20028;-42
2021/06/08 01:23:38;;;;;;;5.95;4.38;;;16.20;94.20;;;;;;5108171;28;20028;-40
2021/06/08 01:26:05;;;;;;;5.45;4.50;;;16.20;94.30;;;;;;5107120;28;20016;-40
2021/06/08 01:28:33;;;;;;;5.40;4.18;;;16.20;94.40;;;;;;5108512;28;20036;-40
2021/06/08 01:31:04;;;;;;;4.97;4.30;;;16.10;94.40;;;;;;5107132;28;20024;-39
2021/06/08 01:33:30;;;;;;;5.65;4.75;;;16.10;94.50;;;;;;5108172;28;20027;-40
2021/06/08 01:35:56;;;;;;;4.88;4.25;;;16.00;94.60;;;;;;5107464;28;20488;-40
2021/06/08 01:38:22;;;;;;;4.78;4.38;;;16.00;94.60;;;;;;5107993;28;20027;-38
2021/06/08 01:40:51;;;;;;;5.60;5.03;;;16.00;94.60;;;;;;5107568;28;20023;-40
2021/06/08 01:43:19;;;;;;;5.68;5.18;;;15.90;94.70;;;;;;5107682;28;20032;-40
2021/06/08 01:45:51;;;;;;;5.70;4.53;;;15.90;94.80;;;;;;5106885;28;20027;-42
2021/06/08 01:48:17;;;;;;;7.35;5.35;;;15.80;94.90;;;;;;5107701;28;20165;-40
2021/06/08 01:50:45;;;;;;;7.55;5.50;;;15.80;95.00;;;;;;5107469;28;20402;-40
2021/06/08 01:53:42;;;;;;;6.47;5.65;;;15.70;95.00;;;;;;5107530;28;20050;-40
2021/06/08 01:56:11;;;;;;;4.65;4.25;;;15.70;95.20;;;;;;5106673;28;20398;-40
2021/06/08 01:59:05;;;;;;;10.35;5.10;;;15.60;95.10;;;;;;5107370;28;20023;-41
2021/06/08 02:01:47;;;;;;;6.75;5.32;;;15.70;95.20;;;;;;5107079;28;20024;-41
2021/06/08 02:04:25;;;;;;;6.03;5.25;;;15.60;95.20;;;;;;5087148;28;20028;-40
2021/06/08 02:07:24;;;;;;;6.30;5.70;;;15.60;95.20;;;;;;5103872;28;20076;-40
2021/06/08 02:10:14;;;;;;;7.18;5.93;;;15.60;95.30;;;;;;5086946;28;20032;-40
2021/06/08 02:12:40;;;;;;;6.00;5.47;;;15.50;95.50;;;;;;5107592;28;20119;-40
2021/06/08 02:15:09;;;;;;;6.05;5.55;;;15.50;95.50;;;;;;5106780;28;20027;-40
2021/06/08 02:17:49;;;;;;;6.85;5.32;;;15.40;95.60;;;;;;5107394;28;20023;-40
2021/06/08 02:20:28;;;;;;;7.05;6.18;;;15.40;95.60;;;;;;5107702;28;20084;-39
2021/06/08 02:22:59;;;;;;;7.32;6.50;;;15.40;95.70;;;;;;5105721;28;20050;-40
2021/06/08 02:25:27;;;;;;;7.70;6.57;;;15.30;95.80;;;;;;5106490;28;20043;-39
2021/06/08 02:27:54;;;;;;;7.68;6.22;;;15.30;95.90;;;;;;5106983;28;20110;-40
2021/06/08 02:30:22;;;;;;;5.88;5.22;;;15.30;96.00;;;;;;5107540;28;20428;-40
2021/06/08 02:32:49;;;;;;;7.93;6.47;;;15.30;96.00;;;;;;5107220;28;20043;-40
2021/06/08 02:35:17;;;;;;;8.18;7.35;;;15.20;96.00;;;;;;5106716;28;20399;-40
2021/06/08 02:37:46;;;;;;;8.48;7.05;;;15.20;96.50;;;;;;5106890;28;20023;-42
2021/06/08 02:40:14;;;;;;;9.38;7.00;;;15.10;96.20;;;;;;5107342;28;20024;-40
2021/06/08 02:42:42;;;;;;;7.13;6.43;;;15.20;96.30;;;;;;5106769;28;20475;-40
2021/06/08 02:45:07;;;;;;;7.55;6.75;;;15.10;96.30;;;;;;5107061;28;20039;-39
2021/06/08 02:47:35;;;;;;;7.82;7.03;;;15.10;96.30;;;;;;5106757;28;20108;-40
2021/06/08 02:50:01;;;;;;;7.85;7.07;;;15.10;96.50;;;;;;5106386;28;20031;-40
2021/06/08 02:52:28;;;;;;;7.43;6.40;;;15.10;96.50;;;;;;5107077;28;20035;-40
2021/06/08 02:54:55;;;;;;;7.68;6.88;;;15.10;96.50;;;;;;5107084;28;20031;-39
2021/06/08 02:57:25;;;;;;;7.45;6.75;;;15.10;96.50;;;;;;5106945;28;20074;-38
2021/06/08 02:59:51;;;;;;;7.38;6.68;;;15.10;96.50;;;;;;5106729;28;20023;-39
2021/06/08 03:02:19;;;;;;;7.03;6.32;;;15.00;96.50;;;;;;5106962;28;20315;-40
2021/06/08 03:04:50;;;;;;;7.95;7.10;;;15.00;96.50;;;;;;5106924;28;20035;-44
2021/06/08 03:07:18;;;;;;;7.50;6.70;;;15.00;96.60;;;;;;5110307;28;20030;-38
2021/06/08 03:09:55;;;;;;;9.13;6.25;;;15.00;96.60;;;;;;5110850;28;20034;-38
2021/06/08 03:12:24;;;;;;;9.57;6.90;;;15.00;96.70;;;;;;5110790;28;20097;-40
2021/06/08 03:14:51;;;;;;;8.07;6.90;;;15.00;96.70;;;;;;5110615;28;20034;-40
2021/06/08 03:17:24;;;;;;;8.63;6.70;;;14.90;96.80;;;;;;5109871;28;20032;-38
2021/06/08 03:19:52;;;;;;;7.60;6.13;;;14.90;96.80;;;;;;5110245;28;20034;-41
2021/06/08 03:22:19;;;;;;;9.25;6.88;;;14.90;96.80;;;;;;5110466;28;20099;-39
2021/06/08 03:24:48;;;;;;;8.93;7.00;;;15.00;96.90;;;;;;5109427;28;20078;-37
2021/06/08 03:27:15;;;;;;;7.72;6.93;;;14.90;96.90;;;;;;5110773;28;20131;-40
2021/06/08 03:29:42;;;;;;;7.18;6.47;;;14.90;97.00;;;;;;5110031;28;20431;-39
2021/06/08 03:32:09;;;;;;;7.13;6.43;;;14.90;97.00;;;;;;5110204;28;20023;-39
2021/06/08 03:34:36;;;;;;;7.22;6.53;;;14.90;97.00;;;;;;5110752;27;20028;-39
2021/06/08 03:37:03;;;;;;;8.70;6.00;;;14.90;97.00;;;;;;5109530;28;20481;-40
2021/06/08 03:39:31;;;;;;;7.05;6.38;;;14.90;97.00;;;;;;5109983;28;20024;-39
2021/06/08 03:41:57;;;;;;;7.47;6.68;;;14.90;97.00;;;;;;5110077;28;20073;-40
2021/06/08 03:44:23;;;;;;;7.25;6.55;;;14.90;97.00;;;;;;5109384;28;20454;-40
2021/06/08 03:46:50;;;;;;;6.85;6.15;;;14.90;97.00;;;;;;5109740;28;20028;-40
2021/06/08 03:49:18;;;;;;;6.88;6.18;;;14.90;97.00;;;;;;5109944;28;20015;-39
2021/06/08 03:51:44;;;;;;;6.88;5.97;;;14.90;97.00;;;;;;5110160;28;20190;-42
2021/06/08 03:54:13;;;;;;;7.72;6.72;;;14.90;97.00;;;;;;5108999;28;20050;-40
2021/06/08 03:56:42;;;;;;;7.63;6.70;;;14.90;97.00;;;;;;5110375;28;20036;-40
2021/06/08 03:59:10;;;;;;;6.55;5.95;;;14.90;97.00;;;;;;5109161;28;20341;-40
2021/06/08 04:01:36;;;;;;;7.65;6.80;;;14.90;97.00;;;;;;5110060;28;20032;-40
2021/06/08 04:04:02;;;;;;;6.55;5.95;;;14.80;96.90;;;;;;5109323;28;20051;-40
2021/06/08 04:06:27;;;;;;;6.25;5.65;;;14.90;97.00;;;;;;5109099;28;20099;-39
2021/06/08 04:08:55;;;;;;;7.20;6.22;;;14.90;97.00;;;;;;5110005;28;20027;-38
2021/06/08 04:11:20;;;;;;;8.02;6.80;;;14.90;97.20;;;;;;5109349;28;20020;-39
2021/06/08 04:13:46;;;;;;;6.18;5.57;;;14.80;96.90;;;;;;5109079;28;20308;-39
2021/06/08 04:16:12;;;;;;;6.93;6.22;;;14.90;97.00;;;;;;5109605;28;20024;-40
2021/06/08 04:18:39;;;;;;;7.32;6.50;;;14.90;96.90;;;;;;5108667;28;20036;-39
2021/06/08 04:21:06;;;;;;;7.10;6.32;;;14.90;96.90;;;;;;5108906;28;20038;-40
2021/06/08 04:23:32;;;;;;;7.65;6.13;;;14.90;96.90;;;;;;5109803;28;20024;-39
2021/06/08 04:25:58;;;;;;;8.15;6.60;;;14.90;96.90;;;;;;5108250;28;20035;-39
2021/06/08 04:28:26;;;;;;;6.28;5.68;;;14.90;97.00;;;;;;5109028;28;20442;-40
2021/06/08 04:30:55;;;;;;;6.45;5.70;;;14.90;97.00;;;;;;5108988;28;20381;-40
2021/06/08 04:33:23;;;;;;;6.15;5.50;;;14.90;97.00;;;;;;5109486;27;20046;-37
2021/06/08 04:35:50;;;;;;;6.47;5.88;;;15.00;97.00;;;;;;5108133;28;20083;-40
2021/06/08 04:38:17;;;;;;;6.90;5.40;;;15.00;97.00;;;;;;5109317;28;20070;-40
2021/06/08 04:40:44;;;;;;;7.90;6.20;;;15.00;97.00;;;;;;5107824;28;20453;-40
2021/06/08 04:43:09;;;;;;;8.73;6.40;;;15.00;97.00;;;;;;5108600;28;20047;-36
2021/06/08 04:45:35;;;;;;;9.93;6.60;;;15.10;97.00;;;;;;5109299;28;20027;-39
2021/06/08 04:48:01;;;;;;;5.95;5.28;;;15.10;96.90;;;;;;5108160;28;20443;-44
2021/06/08 04:50:27;;;;;;;6.80;5.45;;;15.10;96.90;;;;;;5108881;28;20073;-45
2021/06/08 04:52:56;;;;;;;6.32;5.72;;;15.10;96.90;;;;;;5108785;28;20351;-39
2021/06/08 04:55:24;;;;;;;6.97;5.50;;;15.20;96.90;;;;;;5108349;28;20045;-43
2021/06/08 04:57:51;;;;;;;6.22;5.63;;;15.20;96.90;;;;;;5108749;28;20016;-42
2021/06/08 05:00:18;;;;;;;6.53;5.93;;;15.20;96.80;;;;;;5108425;28;20376;-39
2021/06/08 05:02:47;;;;;;;6.05;5.32;;;15.20;96.80;;;;;;5107936;28;20026;-40
2021/06/08 05:05:27;;;;;;;5.38;4.88;;;15.30;96.80;;;;;;5108539;28;20036;-40
2021/06/08 05:08:09;;;;;;;6.90;6.00;;;15.30;96.80;;;;;;5108707;28;20020;-41
2021/06/08 05:10:39;;;;;;;5.55;4.78;;;15.40;96.70;;;;;;5088357;28;20056;-43
2021/06/08 05:13:08;;;;;;;5.10;4.70;;;15.40;96.70;;;;;;5104470;28;20118;-41
2021/06/08 05:15:35;;;;;;;6.05;4.55;;;15.40;96.60;;;;;;5088887;28;20028;-39
2021/06/08 05:18:01;;;;;;;5.35;4.20;;;15.40;96.60;;;;;;5101785;28;20066;-40
2021/06/08 05:20:27;;;;;;;4.40;4.00;;;15.50;96.70;;;;;;5108529;28;20016;-41
2021/06/08 05:22:55;;;;;;;4.65;4.25;;;15.50;96.60;;;;;;5108582;28;20027;-41
2021/06/08 05:25:21;;;;;;;5.75;4.20;;;15.50;96.60;;;;;;5107852;28;20498;-41
2021/06/08 05:27:47;;;;;;;5.13;4.53;;;15.50;96.60;;;;;;5108155;28;20064;-40
2021/06/08 05:30:13;;;;;;;5.32;4.80;;;15.60;96.60;;;;;;5107386;28;20019;-38
2021/06/08 05:32:39;;;;;;;4.97;4.45;;;15.70;96.60;;;;;;5107397;28;20028;-39
2021/06/08 05:35:08;;;;;;;4.50;4.10;;;15.70;96.60;;;;;;5108005;28;20023;-39
2021/06/08 05:37:43;;;;;;;4.65;4.15;;;15.70;96.50;;;;;;5107615;28;20405;-37
2021/06/08 05:40:10;;;;;;;3.70;3.38;;;15.70;96.50;;;;;;5097047;28;20032;-39
2021/06/08 05:42:36;;;;;;;4.53;3.55;;;15.80;96.50;;;;;;5107867;28;20027;-40
2021/06/08 05:45:02;;;;;;;3.33;3.03;;;15.90;96.40;;;;;;5107519;28;20089;-40
2021/06/08 05:47:28;;;;;;;4.72;3.15;;;15.90;96.30;;;;;;5107677;28;20053;-41
2021/06/08 05:49:53;;;;;;;2.65;2.30;;;16.00;96.10;;;;;;5106964;28;20008;-39
2021/06/08 05:52:20;;;;;;;4.18;2.42;;;16.00;96.00;;;;;;5106739;28;20320;-40
2021/06/08 05:54:46;;;;;;;3.90;2.13;;;16.10;95.90;;;;;;5107646;27;20434;-40
2021/06/08 05:57:12;;;;;;;2.25;2.05;;;16.10;95.70;;;;;;5107938;28;20123;-38
2021/06/08 05:59:38;;;;;;;3.90;2.10;;;16.20;95.60;;;;;;5103574;28;20472;-40
2021/06/08 06:02:05;;;;;;;3.20;1.88;;;16.20;95.50;;;;;;5105667;28;20085;-41
2021/06/08 06:04:31;;;;;;;3.30;1.80;;;16.30;95.40;;;;;;5106812;28;20032;-39
2021/06/08 06:06:58;;;;;;;3.15;2.05;;;16.30;95.30;;;;;;5105796;28;20019;-38
2021/06/08 06:09:25;;;;;;;4.13;2.15;;;16.30;95.20;;;;;;5106218;28;20082;-40
2021/06/08 06:11:53;;;;;;;3.58;2.20;;;16.40;95.10;;;;;;5106189;28;20015;-40
2021/06/08 06:14:22;;;;;;;2.78;2.05;;;16.40;95.10;;;;;;5105509;28;20019;-40
2021/06/08 06:16:52;;;;;;;2.05;1.85;;;16.50;95.10;;;;;;5106667;28;20042;-40
2021/06/08 06:19:20;;;;;;;3.13;2.30;;;16.50;95.00;;;;;;5105388;28;20089;-40
2021/06/08 06:21:49;;;;;;;3.63;2.30;;;16.60;95.00;;;;;;5105471;28;20023;-40
2021/06/08 06:24:15;;;;;;;2.70;2.10;;;16.60;94.90;;;;;;5106890;28;20061;-40
2021/06/08 06:26:43;;;;;;;2.30;2.10;;;16.70;94.90;;;;;;5106580;28;20019;-40
2021/06/08 06:29:09;;;;;;;2.83;1.80;;;16.70;94.80;;;;;;5107090;28;20020;-40
2021/06/08 06:31:39;;;;;;;2.42;1.80;;;16.80;94.80;;;;;;5110473;28;20038;-42
2021/06/08 06:34:05;;;;;;;1.95;1.50;;;16.80;94.70;;;;;;5105787;28;20111;-40
2021/06/08 06:36:35;;;;;;;3.17;1.60;;;16.90;94.70;;;;;;5107455;28;20103;-36
2021/06/08 06:39:05;;;;;;;4.55;1.63;;;17.00;94.70;;;;;;5120399;28;20027;-40
2021/06/08 06:41:32;;;;;;;3.33;1.83;;;17.00;94.60;;;;;;5108203;28;20015;-42
2021/06/08 06:43:59;;;;;;;2.83;1.67;;;17.10;94.60;;;;;;5110458;28;20039;-40
2021/06/08 06:46:31;;;;;;;2.70;1.73;;;17.20;94.50;;;;;;5111573;28;20056;-40
2021/06/08 06:48:57;;;;;;;2.20;1.60;;;17.20;94.40;;;;;;5110512;28;20028;-40
2021/06/08 06:51:23;;;;;;;2.38;1.90;;;17.20;94.40;;;;;;5110032;28;20068;-40
2021/06/08 06:53:49;;;;;;;2.72;1.92;;;17.30;94.30;;;;;;5110822;28;20523;-38
2021/06/08 06:56:17;;;;;;;2.72;1.77;;;17.30;94.20;;;;;;5109855;28;20023;-41
2021/06/08 06:58:43;;;;;;;3.22;1.95;;;17.30;94.20;;;;;;5110856;27;20031;-41
2021/06/08 07:01:08;;;;;;;3.45;2.00;;;17.40;94.20;;;;;;5110617;27;20019;-41
2021/06/08 07:03:35;;;;;;;1.70;1.60;;;17.40;94.20;;;;;;5110453;28;20024;-40
2021/06/08 07:06:02;;;;;;;2.15;1.60;;;17.40;94.10;;;;;;5110265;28;20030;-41
2021/06/08 07:08:31;;;;;;;3.80;1.50;;;17.40;94.10;;;;;;5111243;28;20026;-40
2021/06/08 07:10:57;;;;;;;2.25;1.85;;;17.50;94.10;;;;;;5109812;28;20115;-40
2021/06/08 07:13:24;;;;;;;2.15;1.60;;;17.50;94.00;;;;;;5111440;28;20028;-40
2021/06/08 07:15:50;;;;;;;1.90;1.70;;;17.60;93.90;;;;;;5110428;28;20044;-40
2021/06/08 07:18:16;;;;;;;2.05;1.58;;;17.70;93.90;;;;;;5110436;28;20036;-40
2021/06/08 07:20:43;;;;;;;2.75;1.80;;;17.80;93.80;;;;;;5110171;28;20038;-40
2021/06/08 07:23:09;;;;;;;2.13;1.70;;;17.80;93.80;;;;;;5110207;28;20046;-40
2021/06/08 07:25:39;;;;;;;1.95;1.77;;;17.90;93.70;;;;;;5110565;28;20035;-42
2021/06/08 07:28:09;;;;;;;2.95;2.17;;;17.90;93.60;;;;;;5109884;28;20467;-43
2021/06/08 07:30:36;;;;;;;2.20;2.00;;;18.00;93.50;;;;;;5110252;28;20027;-46
2021/06/08 07:33:12;;;;;;;2.63;2.20;;;18.00;93.50;;;;;;5109703;28;20026;-41
2021/06/08 07:35:52;;;;;;;2.85;2.10;;;18.00;93.40;;;;;;5110636;28;20439;-39
2021/06/08 07:38:28;;;;;;;3.40;2.15;;;18.10;93.30;;;;;;5109482;28;20040;-39
2021/06/08 07:41:03;;;;;;;3.45;2.22;;;18.10;93.30;;;;;;5109540;28;20644;-40
2021/06/08 07:43:43;;;;;;;4.05;1.92;;;18.20;93.30;;;;;;5110676;28;20019;-39
2021/06/08 07:46:15;;;;;;;3.30;2.55;;;18.20;93.20;;;;;;5109778;28;20033;-41
2021/06/08 07:48:43;;;;;;;2.40;2.20;;;18.30;93.20;;;;;;5110039;28;20030;-40
2021/06/08 07:51:11;;;;;;;1.85;1.75;;;18.40;93.10;;;;;;5109554;28;20035;-41
2021/06/08 07:53:36;;;;;;;2.97;2.30;;;18.40;93.00;;;;;;5108904;28;20024;-39
2021/06/08 07:56:04;;;;;;;3.50;2.20;;;18.50;92.90;;;;;;5109593;28;20023;-40
2021/06/08 07:58:29;;;;;;;3.05;1.95;;;18.50;92.80;;;;;;5109309;27;20099;-42
2021/06/08 08:00:57;;;;;;;2.30;2.08;;;18.50;92.80;;;;;;5109144;28;20103;-40
2021/06/08 08:03:25;;;;;;;3.47;2.13;;;18.60;92.80;;;;;;5109726;28;20051;-40
2021/06/08 08:05:52;;;;;;;2.08;1.95;;;18.70;92.80;;;;;;5108787;28;20606;-41
2021/06/08 08:08:19;;;;;;;4.88;2.50;;;18.70;92.80;;;;;;5109614;28;20123;-40
2021/06/08 08:10:46;;;;;;;2.25;2.03;;;18.80;92.70;;;;;;5109227;28;20023;-41
2021/06/08 08:13:15;;;;;;;2.58;2.10;;;18.90;92.70;;;;;;5108939;28;20027;-40
2021/06/08 08:15:45;;;;;;;2.60;2.35;;;18.90;92.60;;;;;;5110105;28;20384;-39
2021/06/08 08:18:10;;;;;;;2.40;2.03;;;18.90;92.60;;;;;;5109883;28;20487;-40
2021/06/08 08:20:56;;;;;;;3.50;2.30;;;19.00;92.60;;;;;;5109714;28;20041;-42
2021/06/08 08:23:27;;;;;;;2.45;2.25;;;19.00;92.50;;;;;;5107842;28;20038;-41
2021/06/08 08:25:54;;;;;;;3.80;3.00;;;19.10;92.50;;;;;;5110386;28;20095;-41
2021/06/08 08:28:19;;;;;;;4.55;2.90;;;19.20;92.30;;;;;;5108717;28;20130;-40
2021/06/08 08:30:45;;;;;;;3.63;2.65;;;19.20;92.10;;;;;;5108752;28;20055;-42
2021/06/08 08:33:14;;;;;;;2.60;2.38;;;19.30;92.10;;;;;;5108971;28;20030;-38
2021/06/08 08:35:40;;;;;;;3.63;2.45;;;19.40;92.10;;;;;;5109208;28;20097;-40
2021/06/08 08:38:07;;;;;;;2.85;2.53;;;19.40;92.10;;;;;;5108801;28;20011;-40
2021/06/08 08:40:33;;;;;;;2.38;2.10;;;19.50;92.00;;;;;;5108176;28;20547;-40
2021/06/08 08:43:02;;;;;;;2.30;2.10;;;19.60;92.00;;;;;;5109371;28;20073;-39
2021/06/08 08:45:29;;;;;;;2.33;2.13;;;19.60;91.90;;;;;;5109939;27;20043;-40
2021/06/08 08:47:55;;;;;;;2.00;1.90;;;19.70;91.90;;;;;;5128815;27;20020;-41
2021/06/08 08:50:23;;;;;;;2.53;2.28;;;19.70;91.90;;;;;;5112042;27;20024;-40
2021/06/08 08:52:56;;;;;;;2.72;2.38;;;19.80;91.90;;;;;;5108658;28;20102;-40
2021/06/08 08:55:23;;;;;;;;;;;19.90;91.80;;;;;;5109162;28;20023;-40
2021/06/08 08:57:50;;;;;;;2.30;2.10;;;19.90;91.80;;;;;;5108760;28;19908;-40
2021/06/08 09:00:16;;;;;;;2.92;2.67;;;20.00;91.70;;;;;;5108803;28;20366;-42
2021/06/08 09:02:43;;;;;;;2.10;1.92;;;20.00;91.70;;;;;;5108242;28;20110;-40
2021/06/08 09:05:10;;;;;;;3.08;2.22;;;20.10;91.70;;;;;;5107720;28;20032;-42
2021/06/08 09:07:35;;;;;;;3.05;2.70;;;20.10;91.70;;;;;;5110046;28;20015;-41
2021/06/08 09:10:03;;;;;;;3.03;2.63;;;20.20;91.60;;;;;;5108894;28;20454;-41
2021/06/08 09:12:29;;;;;;;5.90;2.65;;;20.30;91.70;;;;;;5109466;28;20020;-40
2021/06/08 09:14:54;;;;;;;2.80;2.22;;;20.40;91.60;;;;;;5108718;28;20030;-41
2021/06/08 09:17:20;;;;;;;2.22;2.03;;;20.40;91.40;;;;;;5107752;28;20072;-41
2021/06/08 09:19:46;;;;;;;2.30;2.10;;;20.50;91.40;;;;;;5108339;28;20102;-40
2021/06/08 09:22:13;;;;;;;2.40;2.20;;;20.50;91.40;;;;;;5108259;28;20043;-40
2021/06/08 09:24:42;;;;;;;2.47;2.28;;;20.50;91.40;;;;;;5118225;27;20195;-41
2021/06/08 09:27:08;;;;;;;2.53;2.33;;;20.60;91.40;;;;;;5108227;28;20098;-39
2021/06/08 09:29:42;;;;;;;2.80;2.30;;;20.60;91.30;;;;;;5107645;28;20027;-40
2021/06/08 09:32:27;;;;;;;2.63;2.33;;;20.70;91.30;;;;;;5107974;28;20051;-41
2021/06/08 09:34:59;;;;;;;2.83;2.33;;;20.70;91.20;;;;;;5108264;28;20032;-40
2021/06/08 09:37:34;;;;;;;;;;;20.80;91.20;;;;;;5107545;28;20559;-40
2021/06/08 09:39:59;;;;;;;2.47;2.28;;;20.80;91.10;;;;;;5107360;28;20591;-40
2021/06/08 09:42:27;;;;;;;2.75;2.47;;;20.90;91.00;;;;;;5107835;28;20102;-40
2021/06/08 09:44:53;;;;;;;3.15;2.42;;;21.00;91.00;;;;;;5107396;28;20085;-40
2021/06/08 09:47:30;;;;;;;3.90;2.45;;;21.10;91.00;;;;;;5108067;28;20024;-39
2021/06/08 09:49:57;;;;;;;3.58;2.63;;;21.10;90.90;;;;;;5107267;28;20474;-39
2021/06/08 09:52:23;;;;;;;2.53;2.30;;;21.20;90.90;;;;;;5107636;28;20030;-41
2021/06/08 09:54:51;;;;;;;3.40;2.92;;;21.20;90.90;;;;;;5107528;28;20035;-39
2021/06/08 09:57:28;;;;;;;2.90;2.70;;;21.30;90.70;;;;;;5107262;28;20102;-39
2021/06/08 09:59:57;;;;;;;2.75;2.55;;;21.40;90.70;;;;;;5107418;28;20055;-41
2021/06/08 10:02:38;;;;;;;3.30;3.00;;;21.40;90.50;;;;;;5107982;28;20027;-41
2021/06/08 10:05:27;;;;;;;3.55;2.88;;;21.50;90.50;;;;;;5107064;28;20038;-42
2021/06/08 10:08:00;;;;;;;3.22;2.58;;;21.60;90.40;;;;;;5107323;28;20178;-40
2021/06/08 10:10:35;;;;;;;3.28;2.90;;;21.60;90.40;;;;;;5087565;28;20062;-40
2021/06/08 10:13:12;;;;;;;4.20;2.90;;;21.70;90.40;;;;;;5102780;28;20042;-40
2021/06/08 10:15:52;;;;;;;5.05;2.70;;;21.80;90.20;;;;;;5086710;28;20653;-41
2021/06/08 10:18:18;;;;;;;2.58;2.38;;;21.90;90.00;;;;;;5103697;28;20047;-39
2021/06/08 10:20:49;;;;;;;3.15;2.78;;;22.00;89.70;;;;;;5107203;28;20024;-38
2021/06/08 10:23:27;;;;;;;2.65;2.42;;;22.10;89.20;;;;;;5107462;28;20016;-42
2021/06/08 10:25:55;;;;;;;3.28;2.70;;;22.20;89.00;;;;;;5087003;28;20060;-41
2021/06/08 10:28:22;;;;;;;3.10;2.85;;;22.20;89.10;;;;;;5101894;28;20381;-40
2021/06/08 10:30:57;;;;;;;3.00;2.80;;;22.20;89.00;;;;;;5107226;28;20035;-41
2021/06/08 10:33:24;;;;;;;3.10;2.80;;;22.30;88.90;;;;;;5107681;28;20027;-39
2021/06/08 10:35:51;;;;;;;3.13;2.80;;;22.30;88.80;;;;;;5107948;28;20123;-40
2021/06/08 10:38:17;;;;;;;2.63;2.42;;;22.30;88.80;;;;;;5107274;28;20035;-39
2021/06/08 10:40:45;;;;;;;2.95;2.60;;;22.40;88.80;;;;;;5107024;28;20070;-41
2021/06/08 10:43:22;;;;;;;3.03;2.72;;;22.50;88.60;;;;;;5105717;28;20038;-40
2021/06/08 10:45:50;;;;;;;2.25;2.03;;;22.60;88.40;;;;;;5106877;28;20039;-42
2021/06/08 10:48:20;;;;;;;2.30;2.10;;;22.70;88.20;;;;;;5105593;28;20034;-40
2021/06/08 10:50:50;;;;;;;2.85;2.58;;;22.70;88.10;;;;;;5105694;28;20467;-40
2021/06/08 10:53:30;;;;;;;2.33;2.13;;;22.70;88.00;;;;;;5105766;28;20047;-40
2021/06/08 10:55:55;;;;;;;2.88;2.58;;;22.80;87.90;;;;;;5106272;28;20051;-39
2021/06/08 10:58:45;;;;;;;3.13;2.53;;;22.80;87.70;;;;;;5107108;28;20043;-40
2021/06/08 11:01:29;;;;;;;3.20;2.90;;;22.90;87.00;;;;;;5105763;28;20028;-40
2021/06/08 11:03:55;;;;;;;3.45;3.15;;;23.00;86.60;;;;;;5105104;28;20024;-40
2021/06/08 11:06:48;;;;;;;3.00;2.70;;;23.00;86.40;;;;;;5102908;28;20514;-39
2021/06/08 11:09:39;;;;;;;2.75;2.55;;;23.00;86.50;;;;;;5102802;28;20042;-38
2021/06/08 11:12:07;;;;;;;4.85;2.70;;;23.00;86.30;;;;;;5104766;28;20020;-40
2021/06/08 11:14:42;;;;;;;2.88;2.67;;;23.10;86.20;;;;;;5106555;28;20118;-40
2021/06/08 11:17:27;;;;;;;2.47;2.28;;;23.20;86.10;;;;;;5106691;28;20031;-40
2021/06/08 11:19:55;;;;;;;2.70;2.50;;;23.30;86.00;;;;;;5106271;28;20039;-39
2021/06/08 11:22:33;;;;;;;2.38;2.17;;;23.40;85.90;;;;;;5106773;28;20717;-42
2021/06/08 11:25:03;;;;;;;2.60;2.40;;;23.50;85.70;;;;;;5106398;28;20040;-38
2021/06/08 11:27:55;;;;;;;3.00;2.67;;;23.70;85.50;;;;;;5109637;28;20061;-40
2021/06/08 11:30:29;;;;;;;2.67;2.47;;;23.70;85.30;;;;;;5101984;28;20172;-42
2021/06/08 11:32:55;;;;;;;3.08;2.78;;;23.80;85.00;;;;;;5110681;28;20106;-41
2021/06/08 11:35:30;;;;;;;3.30;2.95;;;23.80;85.00;;;;;;5110307;28;20430;-41
2021/06/08 11:38:09;;;;;;;3.45;2.53;;;23.80;85.00;;;;;;5110032;28;20020;-40
2021/06/08 11:40:34;;;;;;;2.58;2.38;;;23.70;84.90;;;;;;5110639;28;20077;-40
2021/06/08 11:43:05;;;;;;;2.90;2.70;;;23.70;85.00;;;;;;5110082;28;20024;-40
2021/06/08 11:45:36;;;;;;;2.78;2.58;;;23.70;84.40;;;;;;5110041;27;20035;-41
2021/06/08 11:48:02;;;;;;;2.70;2.50;;;23.70;84.40;;;;;;5110570;28;20023;-41
2021/06/08 11:50:45;;;;;;;3.20;2.90;;;23.80;84.50;;;;;;5109304;28;20190;-40
2021/06/08 11:53:12;;;;;;;2.95;2.65;;;23.80;84.30;;;;;;5110330;28;20028;-38
2021/06/08 11:55:39;;;;;;;2.72;2.53;;;23.90;84.20;;;;;;5110041;27;20472;-40
2021/06/08 11:58:25;;;;;;;3.47;3.17;;;23.90;84.30;;;;;;5109595;28;20023;-40
2021/06/08 12:00:51;;;;;;;3.20;3.00;;;23.90;84.30;;;;;;5109457;28;20020;-40
2021/06/08 12:03:30;;;;;;;3.30;2.42;;;23.90;84.20;;;;;;5110121;28;20494;-40
2021/06/08 12:05:57;;;;;;;4.30;2.60;;;23.90;84.30;;;;;;5109346;28;20024;-41
2021/06/08 12:08:33;;;;;;;3.80;3.40;;;23.90;84.40;;;;;;5109711;28;20028;-39
2021/06/08 12:11:16;;;;;;;3.58;2.50;;;24.00;83.90;;;;;;5109648;28;20016;-39
2021/06/08 12:13:43;;;;;;;3.22;2.75;;;24.10;83.70;;;;;;5110338;28;20030;-41
2021/06/08 12:16:16;;;;;;;2.90;2.70;;;24.10;83.60;;;;;;5109629;28;20016;-40
2021/06/08 12:18:43;;;;;;;2.70;2.50;;;24.10;83.70;;;;;;5109182;28;20097;-40
2021/06/08 12:21:19;;;;;;;2.45;2.25;;;24.10;83.90;;;;;;5108918;28;20069;-40
2021/06/08 12:23:46;;;;;;;2.60;2.40;;;24.10;84.10;;;;;;5109686;28;20496;-40
2021/06/08 12:26:21;;;;;;;3.38;2.85;;;24.10;84.10;;;;;;5109115;28;20024;-41
2021/06/08 12:29:05;;;;;;;2.95;2.75;;;24.20;83.90;;;;;;5099073;28;20036;-41
2021/06/08 12:31:31;;;;;;;3.25;3.03;;;24.30;83.70;;;;;;5109395;28;20581;-41
2021/06/08 12:33:58;;;;;;;3.95;3.50;;;24.40;83.50;;;;;;5108589;28;20106;-42
2021/06/08 12:36:24;;;;;;;3.88;3.58;;;24.40;83.20;;;;;;5109606;28;20020;-41
2021/06/08 12:38:52;;;;;;;3.65;3.35;;;24.40;82.70;;;;;;5108762;28;20554;-39
2021/06/08 12:41:25;;;;;;;3.58;2.95;;;24.30;82.70;;;;;;5108519;28;20023;-40
2021/06/08 12:43:55;;;;;;;3.00;2.80;;;24.40;83.00;;;;;;5106778;28;20052;-40
2021/06/08 12:46:29;;;;;;;3.13;2.92;;;24.50;83.20;;;;;;5115621;27;20187;-41
2021/06/08 12:49:15;;;;;;;3.35;3.05;;;24.60;83.00;;;;;;5104542;28;20039;-41
2021/06/08 12:51:45;;;;;;;3.13;2.85;;;24.80;82.10;;;;;;5108480;28;20072;-41
2021/06/08 12:54:26;;;;;;;5.00;3.10;;;24.80;81.70;;;;;;5108070;28;20020;-41
2021/06/08 12:56:52;;;;;;;3.20;2.92;;;24.80;81.70;;;;;;5107146;28;20096;-40
2021/06/08 12:59:26;;;;;;;3.55;2.55;;;24.80;81.90;;;;;;5107249;28;20027;-40